Station History

Weather Underground - logo

Station Historical Data
Daily Summary for March 8, 2018 Units:  English    Metric   Both
« Previous Day
Next Day »
Daily Weekly Monthly Yearly Custom
  High: Low: Average:
Temperature: 74.0 °F 40.8 °F 56.9 °F
Dew Point: 49.7 °F 37.2 °F 41.4 °F
Humidity: 90 % 31 % 61 %
Wind Speed: 6.9 mph 0.0 mph 1.3 mph
Wind Gust: 6.9 mph - -
Wind:- - SW
Pressure: 30.15 in 30.01 in -
Precipitation: 0.00 in    
Historical Graphs
 
 
Tabular Data for March 8, 2018
Time Temperature Dew Point Pressure Wind Wind Speed Wind Gust Humidity Rainfall Rate (Hourly)
00:01 45.7 °F 41.8 °F 30.07 in Calm     86 % 0.00 in
00:06 45.8 °F 42.2 °F 30.07 in Calm     87 % 0.00 in
00:11 45.8 °F 41.9 °F 30.07 in Calm     86 % 0.00 in
00:16 45.3 °F 41.1 °F 30.07 in Calm     85 % 0.00 in
00:21 45.2 °F 41.6 °F 30.07 in Calm     87 % 0.00 in
00:27 45.5 °F 41.9 °F 30.08 in Calm     87 % 0.00 in
00:32 45.7 °F 42.1 °F 30.08 in Calm     87 % 0.00 in
00:37 46.0 °F 42.0 °F 30.08 in Calm     86 % 0.00 in
00:42 45.9 °F 41.6 °F 30.08 in Calm     85 % 0.00 in
00:47 45.3 °F 40.7 °F 30.08 in Calm     84 % 0.00 in
00:52 45.0 °F 40.8 °F 30.08 in Calm     85 % 0.00 in
00:57 44.6 °F 40.7 °F 30.08 in Calm     86 % 0.00 in
01:02 44.5 °F 40.9 °F 30.09 in Calm     87 % 0.00 in
01:07 44.8 °F 41.2 °F 30.09 in WNW 1.0 mph 1.0 mph 87 % 0.00 in
01:12 45.3 °F 41.4 °F 30.09 in Calm     86 % 0.00 in
01:17 45.5 °F 41.3 °F 30.09 in Calm     85 % 0.00 in
01:22 45.6 °F 41.0 °F 30.09 in Calm     84 % 0.00 in
01:27 45.5 °F 40.9 °F 30.09 in Calm     84 % 0.00 in
01:32 45.3 °F 41.1 °F 30.09 in Calm     85 % 0.00 in
01:37 45.0 °F 40.5 °F 30.09 in Calm     84 % 0.00 in
01:42 44.6 °F 40.4 °F 30.08 in Calm     85 % 0.00 in
01:47 44.3 °F 40.1 °F 30.08 in Calm     85 % 0.00 in
01:52 43.7 °F 39.5 °F 30.08 in Calm     85 % 0.00 in
01:57 43.2 °F 39.0 °F 30.08 in Calm     85 % 0.00 in
02:02 42.5 °F 38.3 °F 30.08 in Calm     85 % 0.00 in
02:07 42.1 °F 38.2 °F 30.09 in Calm     86 % 0.00 in
02:12 42.1 °F 38.8 °F 30.09 in Calm     88 % 0.00 in
02:17 42.0 °F 38.7 °F 30.09 in SE 1.2 mph   88 % 0.00 in
02:22 41.8 °F 38.2 °F 30.09 in Calm     87 % 0.00 in
02:27 41.8 °F 38.5 °F 30.09 in Calm     88 % 0.00 in
02:32 41.9 °F 38.9 °F 30.08 in Calm     89 % 0.00 in
02:37 42.2 °F 39.2 °F 30.08 in Calm     89 % 0.00 in
02:42 42.6 °F 39.3 °F 30.08 in Calm     88 % 0.00 in
02:47 42.9 °F 39.6 °F 30.08 in Calm     88 % 0.00 in
02:52 43.1 °F 39.5 °F 30.08 in Calm     87 % 0.00 in
02:57 42.9 °F 39.0 °F 30.07 in Calm     86 % 0.00 in
03:02 42.8 °F 39.2 °F 30.08 in Calm     87 % 0.00 in
03:07 42.2 °F 38.3 °F 30.08 in Calm     86 % 0.00 in
03:12 41.8 °F 38.2 °F 30.08 in Calm     87 % 0.00 in
03:17 41.5 °F 38.2 °F 30.08 in Calm     88 % 0.00 in
03:22 41.3 °F 38.0 °F 30.08 in Calm     88 % 0.00 in
03:27 41.2 °F 38.2 °F 30.08 in Calm     89 % 0.00 in
03:32 41.1 °F 38.1 °F 30.08 in Calm     89 % 0.00 in
03:37 41.1 °F 38.1 °F 30.08 in Calm     89 % 0.00 in
03:42 40.9 °F 37.9 °F 30.08 in Calm     89 % 0.00 in
03:47 40.9 °F 38.2 °F 30.09 in Calm     90 % 0.00 in
03:52 40.9 °F 37.9 °F 30.09 in Calm     89 % 0.00 in
03:57 40.8 °F 37.8 °F 30.09 in Calm     89 % 0.00 in
04:02 40.8 °F 37.8 °F 30.09 in Calm     89 % 0.00 in
04:08 41.1 °F 38.1 °F 30.09 in Calm     89 % 0.00 in
04:13 41.6 °F 38.3 °F 30.09 in Calm     88 % 0.00 in
04:23 42.3 °F 38.4 °F 30.09 in Calm     86 % 0.00 in
04:28 42.6 °F 38.4 °F 30.09 in Calm     85 % 0.00 in
04:33 42.9 °F 38.4 °F 30.09 in ESE 1.2 mph   84 % 0.00 in
04:38 43.1 °F 38.6 °F 30.10 in ESE 1.2 mph   84 % 0.00 in
04:43 43.2 °F 38.4 °F 30.10 in ESE 1.2 mph   83 % 0.00 in
04:48 43.2 °F 38.4 °F 30.10 in Calm     83 % 0.00 in
04:53 43.2 °F 38.4 °F 30.10 in Calm     83 % 0.00 in
04:58 43.1 °F 38.3 °F 30.10 in Calm     83 % 0.00 in
05:03 42.9 °F 38.1 °F 30.10 in Calm     83 % 0.00 in
05:08 42.5 °F 38.0 °F 30.10 in Calm     84 % 0.00 in
05:13 42.2 °F 37.7 °F 30.10 in Calm     84 % 0.00 in
05:18 42.1 °F 37.9 °F 30.10 in Calm     85 % 0.00 in
05:23 41.8 °F 37.9 °F 30.10 in Calm     86 % 0.00 in
05:28 41.8 °F 37.9 °F 30.10 in Calm     86 % 0.00 in
05:33 42.3 °F 37.8 °F 30.10 in Calm     84 % 0.00 in
05:38 43.1 °F 38.3 °F 30.10 in Calm     83 % 0.00 in
05:43 43.1 °F 38.3 °F 30.10 in Calm     83 % 0.00 in
05:48 43.0 °F 37.9 °F 30.10 in Calm     82 % 0.00 in
05:53 42.9 °F 37.8 °F 30.11 in Calm     82 % 0.00 in
05:58 42.7 °F 38.2 °F 30.11 in Calm     84 % 0.00 in
06:03 42.5 °F 38.0 °F 30.11 in Calm     84 % 0.00 in
06:08 42.3 °F 37.8 °F 30.11 in Calm     84 % 0.00 in
06:13 42.1 °F 37.6 °F 30.11 in Calm     84 % 0.00 in
06:18 41.8 °F 37.6 °F 30.11 in Calm     85 % 0.00 in
06:23 41.2 °F 37.3 °F 30.11 in Calm   0.1 mph 86 % 0.00 in
06:28 41.1 °F 37.2 °F 30.11 in Calm     86 % 0.00 in
06:33 40.9 °F 37.3 °F 30.11 in Calm     87 % 0.00 in
06:38 41.1 °F 37.5 °F 30.12 in Calm     87 % 0.00 in
06:43 41.5 °F 37.6 °F 30.12 in Calm     86 % 0.00 in
06:48 41.5 °F 37.6 °F 30.12 in Calm     86 % 0.00 in
06:53 41.7 °F 37.8 °F 30.12 in Calm     86 % 0.00 in
06:58 42.0 °F 38.1 °F 30.12 in Calm     86 % 0.00 in
07:03 42.2 °F 38.3 °F 30.12 in Calm     86 % 0.00 in
07:08 43.0 °F 38.8 °F 30.12 in ESE 1.2 mph   85 % 0.00 in
07:13 43.9 °F 39.4 °F 30.12 in Calm     84 % 0.00 in
07:18 44.6 °F 39.1 °F 30.12 in Calm     81 % 0.00 in
07:24 45.2 °F 39.4 °F 30.13 in Calm     80 % 0.00 in
07:29 45.9 °F 39.4 °F 30.13 in Calm     78 % 0.00 in
07:34 46.7 °F 39.9 °F 30.13 in Calm     77 % 0.00 in
07:39 47.6 °F 39.7 °F 30.14 in Calm     74 % 0.00 in
07:44 48.1 °F 40.9 °F 30.14 in Calm     76 % 0.00 in
07:49 48.6 °F 41.4 °F 30.14 in Calm     76 % 0.00 in
07:54 49.4 °F 41.8 °F 30.14 in Calm     75 % 0.00 in
07:59 50.1 °F 41.8 °F 30.15 in Calm     73 % 0.00 in
08:04 51.0 °F 42.3 °F 30.15 in Calm     72 % 0.00 in
08:09 52.2 °F 42.3 °F 30.14 in Calm     69 % 0.00 in
08:14 53.7 °F 41.8 °F 30.15 in Calm     64 % 0.00 in
08:19 54.5 °F 42.2 °F 30.15 in Calm     63 % 0.00 in
08:24 55.9 °F 41.8 °F 30.15 in Calm     59 % 0.00 in
08:29 57.1 °F 42.5 °F 30.14 in Calm     58 % 0.00 in
08:34 58.1 °F 39.0 °F 30.15 in ESE 1.2 mph 1.2 mph 49 % 0.00 in
08:39 58.7 °F 39.6 °F 30.15 in SE 1.2 mph   49 % 0.00 in
08:44 59.6 °F 41.4 °F 30.15 in Calm     51 % 0.00 in
08:49 60.0 °F 41.8 °F 30.15 in ESE 1.2 mph   51 % 0.00 in
08:54 60.8 °F 40.4 °F 30.15 in SE 1.0 mph 1.0 mph 47 % 0.00 in
08:59 61.4 °F 41.5 °F 30.15 in Calm     48 % 0.00 in
09:04 61.8 °F 40.8 °F 30.15 in SE 2.3 mph 2.3 mph 46 % 0.00 in
09:09 62.2 °F 41.7 °F 30.15 in SSW 1.2 mph 1.2 mph 47 % 0.00 in
09:14 63.0 °F 40.7 °F 30.15 in SSE 1.2 mph 1.2 mph 44 % 0.00 in
09:19 63.7 °F 40.8 °F 30.15 in SSE 2.0 mph 2.0 mph 43 % 0.00 in
09:24 63.8 °F 40.9 °F 30.14 in Calm     43 % 0.00 in
09:29 63.8 °F 40.3 °F 30.14 in ESE 1.2 mph 1.2 mph 42 % 0.00 in
09:34 63.8 °F 39.6 °F 30.14 in ESE 2.3 mph 2.3 mph 41 % 0.00 in
09:39 64.0 °F 39.2 °F 30.14 in NE 6.9 mph 6.9 mph 40 % 0.00 in
09:44 64.1 °F 39.9 °F 30.14 in SE 1.2 mph 1.2 mph 41 % 0.00 in
09:49 64.5 °F 39.0 °F 30.14 in South 4.6 mph 4.6 mph 39 % 0.00 in
09:54 64.9 °F 40.0 °F 30.13 in SE 4.0 mph 4.0 mph 40 % 0.00 in
09:59 65.1 °F 40.2 °F 30.13 in NE 1.2 mph 1.2 mph 40 % 0.00 in
10:04 65.4 °F 38.4 °F 30.13 in East 3.5 mph 3.5 mph 37 % 0.00 in
10:09 65.7 °F 38.7 °F 30.13 in SSE 4.0 mph 4.0 mph 37 % 0.00 in
10:14 66.1 °F 38.4 °F 30.13 in SE 3.5 mph 3.5 mph 36 % 0.00 in
10:19 66.3 °F 37.8 °F 30.12 in ESE 3.5 mph 3.5 mph 35 % 0.00 in
10:24 66.7 °F 38.9 °F 30.12 in SE 3.5 mph 3.5 mph 36 % 0.00 in
10:29 67.1 °F 39.9 °F 30.12 in SE 3.5 mph 3.5 mph 37 % 0.00 in
10:34 67.9 °F 39.2 °F 30.12 in Calm   0.2 mph 35 % 0.00 in
10:39 68.6 °F 39.8 °F 30.12 in SE 4.6 mph 4.6 mph 35 % 0.00 in
10:44 68.8 °F 39.3 °F 30.12 in SE 6.0 mph 6.0 mph 34 % 0.00 in
10:50 68.9 °F 40.8 °F 30.12 in SSE 4.0 mph 4.0 mph 36 % 0.00 in
10:55 69.1 °F 39.5 °F 30.12 in SE 3.5 mph 3.5 mph 34 % 0.00 in
11:00 69.5 °F 40.6 °F 30.11 in SSW 6.9 mph 6.9 mph 35 % 0.00 in
11:05 69.6 °F 41.5 °F 30.11 in SE 3.5 mph 3.5 mph 36 % 0.00 in
11:10 70.0 °F 41.1 °F 30.11 in SSE 3.5 mph 3.5 mph 35 % 0.00 in
11:15 70.5 °F 42.2 °F 30.11 in South 3.5 mph 3.5 mph 36 % 0.00 in
11:20 70.7 °F 42.4 °F 30.11 in East 3.5 mph 3.5 mph 36 % 0.00 in
11:25 70.7 °F 43.8 °F 30.11 in South 3.5 mph 3.5 mph 38 % 0.00 in
11:30 70.8 °F 44.6 °F 30.11 in NNW 3.5 mph 3.5 mph 39 % 0.00 in
11:35 70.9 °F 44.7 °F 30.11 in West 3.5 mph 3.5 mph 39 % 0.00 in
11:40 70.8 °F 44.6 °F 30.10 in SW 2.3 mph 2.3 mph 39 % 0.00 in
11:45 70.3 °F 44.2 °F 30.10 in NNW 4.0 mph 4.0 mph 39 % 0.00 in
11:50 70.1 °F 44.6 °F 30.10 in NNW 2.3 mph 2.3 mph 40 % 0.00 in
11:55 70.4 °F 44.3 °F 30.10 in NNW 2.3 mph 2.3 mph 39 % 0.00 in
12:00 70.1 °F 45.3 °F 30.10 in NW 5.8 mph 5.8 mph 41 % 0.00 in
12:05 70.1 °F 45.9 °F 30.09 in SSW 2.3 mph 2.3 mph 42 % 0.00 in
12:10 70.3 °F 46.7 °F 30.09 in South 2.3 mph 2.3 mph 43 % 0.00 in
12:15 70.4 °F 46.8 °F 30.09 in NNW 2.3 mph 2.3 mph 43 % 0.00 in
12:20 70.7 °F 48.3 °F 30.09 in SSE 1.2 mph 1.2 mph 45 % 0.00 in
12:25 71.3 °F 48.3 °F 30.09 in NW 3.5 mph 3.5 mph 44 % 0.00 in
12:30 70.9 °F 48.5 °F 30.09 in SSW 3.5 mph 3.5 mph 45 % 0.00 in
12:35 71.1 °F 48.1 °F 30.09 in SSE 3.5 mph 3.5 mph 44 % 0.00 in
12:40 71.0 °F 48.0 °F 30.09 in North 3.5 mph 3.5 mph 44 % 0.00 in
12:45 71.4 °F 47.7 °F 30.09 in NW 3.0 mph 3.0 mph 43 % 0.00 in
12:50 71.6 °F 49.7 °F 30.08 in SE 4.6 mph 4.6 mph 46 % 0.00 in
12:55 71.9 °F 48.8 °F 30.08 in ENE 3.5 mph 3.5 mph 44 % 0.00 in
13:00 72.2 °F 47.8 °F 30.08 in WNW 2.3 mph 2.3 mph 42 % 0.00 in
13:05 72.0 °F 48.3 °F 30.08 in NNW 2.3 mph 2.3 mph 43 % 0.00 in
13:10 72.4 °F 48.6 °F 30.07 in SSE 2.0 mph 2.0 mph 43 % 0.00 in
13:15 72.5 °F 47.5 °F 30.07 in SW 3.5 mph 3.5 mph 41 % 0.00 in
13:20 72.6 °F 47.5 °F 30.07 in WNW 3.5 mph 3.5 mph 41 % 0.00 in
13:25 71.8 °F 46.2 °F 30.06 in NNW 1.2 mph   40 % 0.00 in
13:30 71.5 °F 46.6 °F 30.06 in NNW 1.0 mph 1.0 mph 41 % 0.00 in
13:35 71.7 °F 46.7 °F 30.06 in NNW 2.3 mph 2.3 mph 41 % 0.00 in
13:40 71.6 °F 46.6 °F 30.06 in NW 2.0 mph 2.0 mph 41 % 0.00 in
13:45 72.0 °F 47.0 °F 30.06 in NNW 2.3 mph   41 % 0.00 in
13:50 72.8 °F 45.7 °F 30.05 in ESE 2.3 mph 2.3 mph 38 % 0.00 in
13:55 73.0 °F 46.6 °F 30.05 in West 2.3 mph 2.3 mph 39 % 0.00 in
14:00 73.3 °F 46.2 °F 30.05 in WNW 3.5 mph 3.5 mph 38 % 0.00 in
14:05 73.0 °F 47.2 °F 30.05 in NW 1.0 mph 1.0 mph 40 % 0.00 in
14:10 72.9 °F 47.2 °F 30.05 in SE 1.2 mph 1.2 mph 40 % 0.00 in
14:15 73.3 °F 46.2 °F 30.05 in NW 3.5 mph 3.5 mph 38 % 0.00 in
14:20 73.3 °F 46.2 °F 30.04 in WNW 1.2 mph 1.2 mph 38 % 0.00 in
14:25 73.2 °F 46.8 °F 30.04 in NE 3.5 mph 3.5 mph 39 % 0.00 in
14:30 73.6 °F 46.4 °F 30.04 in NW 3.5 mph 3.5 mph 38 % 0.00 in
14:35 73.1 °F 44.5 °F 30.04 in WNW 2.3 mph 2.3 mph 36 % 0.00 in
14:40 73.1 °F 45.3 °F 30.04 in Calm     37 % 0.00 in
14:46 73.4 °F 43.3 °F 30.04 in Calm     34 % 0.00 in
14:51 73.9 °F 43.0 °F 30.03 in South 1.2 mph 1.2 mph 33 % 0.00 in
14:56 74.0 °F 43.1 °F 30.03 in Calm     33 % 0.00 in
15:01 73.8 °F 43.7 °F 30.03 in WNW 1.2 mph 1.2 mph 34 % 0.00 in
15:06 73.7 °F 44.3 °F 30.03 in NW 3.5 mph 3.5 mph 35 % 0.00 in
15:11 73.6 °F 42.7 °F 30.02 in NW 1.2 mph   33 % 0.00 in
15:16 73.6 °F 41.1 °F 30.02 in NW 2.3 mph 2.3 mph 31 % 0.00 in
15:21 73.6 °F 41.9 °F 30.02 in South 1.2 mph 1.2 mph 32 % 0.00 in
15:26 73.6 °F 42.7 °F 30.02 in NW 1.2 mph 1.2 mph 33 % 0.00 in
15:31 73.4 °F 42.5 °F 30.02 in Calm     33 % 0.00 in
15:36 73.2 °F 43.1 °F 30.02 in WNW 1.2 mph 1.2 mph 34 % 0.00 in
15:41 73.2 °F 43.1 °F 30.02 in NE 3.5 mph 3.5 mph 34 % 0.00 in
15:46 73.5 °F 42.6 °F 30.02 in WSW 2.3 mph 2.3 mph 33 % 0.00 in
15:51 73.2 °F 42.4 °F 30.02 in WNW 2.3 mph 2.3 mph 33 % 0.00 in
15:56 73.1 °F 42.3 °F 30.01 in NW 3.5 mph 3.5 mph 33 % 0.00 in
16:01 73.2 °F 43.1 °F 30.02 in NW 4.0 mph 4.0 mph 34 % 0.00 in
16:06 73.1 °F 43.8 °F 30.02 in NNW 2.3 mph 2.3 mph 35 % 0.00 in
16:11 73.0 °F 43.7 °F 30.01 in North 3.5 mph 3.5 mph 35 % 0.00 in
16:16 73.0 °F 42.2 °F 30.01 in NW 2.3 mph 2.3 mph 33 % 0.00 in
16:21 73.0 °F 43.0 °F 30.01 in WNW 1.2 mph 1.2 mph 34 % 0.00 in
16:26 72.9 °F 43.6 °F 30.01 in NW 3.5 mph 3.5 mph 35 % 0.00 in
16:31 72.8 °F 43.5 °F 30.01 in NW 2.3 mph 2.3 mph 35 % 0.00 in
16:36 72.7 °F 43.5 °F 30.01 in Calm     35 % 0.00 in
16:41 72.6 °F 44.1 °F 30.01 in NW 4.0 mph 4.0 mph 36 % 0.00 in
16:46 72.4 °F 43.9 °F 30.01 in NW 2.3 mph 2.3 mph 36 % 0.00 in
16:51 72.2 °F 45.2 °F 30.01 in North 4.0 mph 4.0 mph 38 % 0.00 in
Park Place, Exeter, Tulare County, California, USA
Compliments of Weather Underground - 2.25 mb